Etusivu
METAR-TAF:

METAR-TAF

Lentoasemat :

Puvirnituq, Quebec, Kanada

Leveyspiiri: 60-03N, Pituuspiiri: 077-17W, korkeus merenpinnasta: 23 m

Tämänhetkinen sää

Tämä raportti tehtiin 13 minuuttia sitten, kello 05.00 UTC
Tuuli 11 kn idästä/kaakosta
Lämpötila -4°C
Kosteus 100%
Ilmanpaine 994 hPa
Näkyvyys: 14.5 km
Hajonneita pilviä 1400 ft:n korkeudessa
Hajonneita pilviä 1900 ft:n korkeudessa
heikkoa lumisadetta

METAR: CYPX 220500Z AUTO 11011KT 9SM -SN BKN014 BKN019 M04/M04 A2934 RMK SLP940

Aika: 00:13 (05:13 UTC)

Sääennuste

Tämä raportti tehtiin 4 tuntia ja 56 minuuttia sitten, kello 00.17 UTC
Ennuste voimassa 22. päivästä klo 00 UTC - 22. päivään klo 12 UTC
Tuuli 12 kn kaakosta
Näkyvyys: 10 km
Pilvistä 8000 ft:n korkeudessa
Ajoittain
22. päivästä klo 00 UTC - 22. päivään klo 12 UTC
Näkyvyys: 4.8 km
1500 ft:n korkeudessa
heikkoa lumisadetta

TAF: CYPX 220017Z 2200/2212 14012KT P6SM OVC080 TEMPO 2200/2212 3SM -SN VV015 RMK FCST BASED ON AUTO OBS. NXT FCST BY 220600Z

Säähavainnot ja -ennusteet yli 4000 lentoasemalta (METAR- ja TAF-raportit).

Käytössä olevat sääasemat on merkitty karttaan keltaisilla ja punaisilla pisteillä.

Aseta hiiri pisteen päälle nähdäksesi sääaseman nimen.

Klikkaa sitten nähdäksesi säähavainnot ja -ennusteet.

Kartan vaihtaminen: klikkaa mustalla rastilla varustettuja vihreitä pisteitä, niin voit zoomata sisään; viivalla varustettua vihreää pistettä, niin voit zoomata ulos tai vihreitä nuolia, niin pääset viereisille kartoille.


METAR-TAF: